Time;durP1;ratioP1;P1;durP2;ratioP2;P2;SDS_P1;SDS_P2;PMS_P1;PMS_P2;Temp;Humidity;BMP_temperature;BMP_pressure;BME280_temperature;BME280_humidity;BME280_pressure;Samples;Min_cycle;Max_cycle;Signal;HPM_P1;HPM_P2
2021/09/23 00:01:40;;;;;;;15.48;9.73;;;11.20;99.90;;;;;;6090026;23;20013;-87
2021/09/23 00:04:32;;;;;;;14.98;9.98;;;11.20;99.90;;;;;;6114467;23;20010;-87
2021/09/23 00:06:59;;;;;;;13.50;8.60;;;11.10;99.90;;;;;;6109327;23;20015;-87
2021/09/23 00:09:25;;;;;;;13.52;8.40;;;11.10;99.90;;;;;;6114106;23;20081;-87
2021/09/23 00:11:51;;;;;;;13.02;9.15;;;11.00;99.90;;;;;;6113806;23;20450;-88
2021/09/23 00:14:16;;;;;;;14.70;9.70;;;11.00;99.90;;;;;;6113969;23;20010;-87
2021/09/23 00:16:42;;;;;;;13.60;9.18;;;11.00;99.90;;;;;;6089989;23;20005;-87
2021/09/23 00:19:08;;;;;;;17.48;11.07;;;11.00;99.90;;;;;;6114473;23;20009;-88
2021/09/23 00:21:34;;;;;;;17.33;11.30;;;11.10;99.90;;;;;;6138328;23;20093;-87
2021/09/23 00:24:00;;;;;;;18.73;12.30;;;11.10;99.90;;;;;;6138859;23;20021;-87
2021/09/23 00:26:25;;;;;;;18.20;10.85;;;11.10;99.90;;;;;;6109061;23;20002;-88
2021/09/23 00:28:51;;;;;;;15.68;10.38;;;11.10;99.90;;;;;;6137756;23;20033;-86
2021/09/23 00:31:17;;;;;;;16.08;10.15;;;11.00;99.90;;;;;;6114006;23;20010;-86
2021/09/23 00:33:42;;;;;;;16.15;10.20;;;11.00;99.90;;;;;;6114626;23;20030;-88
2021/09/23 00:36:08;;;;;;;12.63;9.38;;;10.90;99.90;;;;;;6113906;23;20037;-87
2021/09/23 00:38:34;;;;;;;17.23;10.50;;;10.90;99.90;;;;;;6114375;23;20010;-87
2021/09/23 00:40:59;;;;;;;16.15;11.45;;;10.90;99.90;;;;;;6113401;23;20002;-87
2021/09/23 00:43:25;;;;;;;18.00;10.52;;;10.90;99.90;;;;;;6138643;23;20005;-87
2021/09/23 00:45:51;;;;;;;14.52;10.13;;;10.90;99.90;;;;;;6052202;23;1319056;-87
2021/09/23 00:48:17;;;;;;;16.58;9.98;;;10.90;99.90;;;;;;6110716;23;20087;-85
2021/09/23 00:50:44;;;;;;;15.32;10.00;;;10.90;99.90;;;;;;6110656;23;20012;-87
2021/09/23 00:53:12;;;;;;;15.05;9.65;;;10.70;99.90;;;;;;6087328;23;20049;-87
2021/09/23 00:55:39;;;;;;;14.32;9.15;;;10.70;99.90;;;;;;6110999;23;20016;-88
2021/09/23 00:58:05;;;;;;;13.25;9.10;;;10.70;99.90;;;;;;6115626;23;20029;-87
2021/09/23 01:00:36;;;;;;;15.93;9.10;;;10.70;99.90;;;;;;6115483;23;20002;-86
2021/09/23 01:03:10;;;;;;;16.30;9.43;;;10.70;99.90;;;;;;6092977;23;20006;-86
2021/09/23 01:05:36;;;;;;;13.70;8.75;;;10.60;99.90;;;;;;6115393;23;20005;-87
2021/09/23 01:08:02;;;;;;;16.52;8.48;;;10.60;99.90;;;;;;6091346;23;20020;-86
2021/09/23 01:10:28;;;;;;;12.60;9.00;;;10.50;99.90;;;;;;6115282;23;20041;-87
2021/09/23 01:12:53;;;;;;;15.18;8.90;;;10.50;99.90;;;;;;6091495;23;20002;-87
2021/09/23 01:15:20;;;;;;;16.33;9.52;;;10.40;99.90;;;;;;6115184;23;20010;-86
2021/09/23 01:17:48;;;;;;;17.27;10.07;;;10.40;99.90;;;;;;6091265;23;20006;-87
2021/09/23 01:20:17;;;;;;;14.43;9.68;;;10.50;99.90;;;;;;6115180;23;20036;-86
2021/09/23 01:22:46;;;;;;;15.82;9.38;;;10.50;99.90;;;;;;6114998;23;20009;-87
2021/09/23 01:25:25;;;;;;;20.65;10.27;;;10.50;99.90;;;;;;6118253;23;20013;-86
2021/09/23 01:27:52;;;;;;;14.70;9.82;;;10.50;99.90;;;;;;6115021;23;20098;-87
2021/09/23 01:30:39;;;;;;;18.88;10.52;;;10.50;99.90;;;;;;6114789;23;20006;-87
2021/09/23 01:33:05;;;;;;;15.38;10.18;;;10.40;99.90;;;;;;6115124;23;20010;-87
2021/09/23 01:35:30;;;;;;;17.27;11.27;;;10.40;99.90;;;;;;6115069;23;20010;-86
2021/09/23 01:37:56;;;;;;;19.17;11.80;;;10.50;99.90;;;;;;6114743;23;20010;-86
2021/09/23 01:40:22;;;;;;;16.60;11.70;;;10.50;99.90;;;;;;6114896;23;20001;-87
2021/09/23 01:42:49;;;;;;;19.35;12.18;;;10.50;99.90;;;;;;6115378;23;20021;-87
2021/09/23 01:45:15;;;;;;;20.17;13.15;;;10.50;99.90;;;;;;6114591;23;20006;-87
2021/09/23 01:47:47;;;;;;;21.90;12.07;;;10.50;99.90;;;;;;6116318;23;20022;-87
2021/09/23 01:50:16;;;;;;;20.33;13.38;;;10.50;99.90;;;;;;6115636;23;20331;-88
2021/09/23 01:52:43;;;;;;;20.00;12.63;;;10.50;99.90;;;;;;6114291;23;20231;-88
2021/09/23 01:55:18;;;;;;;18.45;12.75;;;10.50;99.90;;;;;;6116780;23;20013;-87
2021/09/23 01:57:46;;;;;;;18.58;12.45;;;10.60;99.90;;;;;;6091092;23;20009;-87
2021/09/23 02:00:12;;;;;;;20.33;12.40;;;10.60;99.90;;;;;;6114585;23;20006;-88
2021/09/23 02:02:43;;;;;;;19.77;11.75;;;10.50;99.90;;;;;;6089011;23;20011;-88
2021/09/23 02:05:27;;;;;;;19.45;12.90;;;10.40;99.90;;;;;;6115191;23;20013;-88
2021/09/23 02:07:53;;;;;;;18.15;12.35;;;10.50;99.90;;;;;;6114632;23;20022;-88
2021/09/23 02:10:19;;;;;;;19.83;11.77;;;10.50;99.90;;;;;;6114922;23;20016;-88
2021/09/23 02:12:45;;;;;;;17.02;11.38;;;10.50;99.90;;;;;;6114909;23;20025;-88
2021/09/23 02:15:15;;;;;;;18.40;11.90;;;10.50;99.90;;;;;;6115452;23;20013;-87
2021/09/23 02:17:43;;;;;;;18.33;11.95;;;10.50;99.90;;;;;;6114814;23;20030;-88
2021/09/23 02:20:12;;;;;;;17.23;11.77;;;10.40;99.90;;;;;;6115236;23;20003;-88
2021/09/23 02:22:46;;;;;;;19.63;12.43;;;10.40;99.90;;;;;;6114676;23;20096;-88
2021/09/23 02:25:12;;;;;;;17.77;12.45;;;10.30;99.90;;;;;;6115331;23;20088;-87
2021/09/23 02:27:38;;;;;;;19.80;11.65;;;10.20;99.90;;;;;;6115390;23;20022;-88
2021/09/23 02:30:05;;;;;;;17.42;11.27;;;10.20;99.90;;;;;;6092124;23;20012;-88
2021/09/23 02:32:31;;;;;;;16.52;10.98;;;10.20;99.90;;;;;;6086354;23;20056;-87
2021/09/23 02:34:57;;;;;;;16.95;11.20;;;10.20;99.90;;;;;;6114908;23;20005;-87
2021/09/23 02:37:24;;;;;;;17.83;11.38;;;10.10;99.90;;;;;;6114547;23;20132;-87
2021/09/23 02:39:51;;;;;;;16.65;11.00;;;10.10;99.90;;;;;;6090060;23;20002;-88
2021/09/23 02:42:17;;;;;;;18.75;11.60;;;10.10;99.90;;;;;;6114693;23;20014;-87
2021/09/23 02:47:42;;;;;;;19.98;12.25;;;10.10;99.90;;;;;;5969100;24;20039;-87
2021/09/23 02:50:08;;;;;;;21.73;12.02;;;10.10;99.90;;;;;;5967637;24;20013;-87
2021/09/23 02:52:34;;;;;;;23.23;12.50;;;10.10;99.90;;;;;;5968062;24;20015;-87
2021/09/23 02:55:00;;;;;;;20.02;12.68;;;10.00;99.90;;;;;;5967868;24;20383;-87
2021/09/23 02:57:28;;;;;;;21.88;13.38;;;10.10;99.90;;;;;;5991813;23;20330;-88
2021/09/23 02:59:54;;;;;;;21.45;12.90;;;10.00;99.90;;;;;;5991043;24;20037;-86
2021/09/23 03:02:20;;;;;;;19.05;11.95;;;10.10;99.90;;;;;;5990909;24;20323;-87
2021/09/23 03:04:46;;;;;;;21.23;12.93;;;10.10;99.90;;;;;;5992027;24;20009;-87
2021/09/23 03:07:11;;;;;;;21.65;12.85;;;10.10;99.90;;;;;;5992912;23;20032;-86
2021/09/23 03:09:40;;;;;;;22.27;13.82;;;10.10;99.90;;;;;;5992675;24;20332;-86
2021/09/23 03:12:06;;;;;;;21.88;13.13;;;10.20;99.90;;;;;;5993048;24;20012;-86
2021/09/23 03:14:32;;;;;;;20.75;13.73;;;10.10;99.90;;;;;;5992617;24;20017;-87
2021/09/23 03:16:57;;;;;;;24.05;13.65;;;10.10;99.90;;;;;;5992615;24;20008;-87
2021/09/23 03:19:23;;;;;;;21.70;14.18;;;10.10;99.90;;;;;;5992418;24;20089;-86
2021/09/23 03:21:49;;;;;;;21.08;14.27;;;10.10;99.90;;;;;;5992659;24;20009;-87
2021/09/23 03:24:15;;;;;;;20.70;13.48;;;10.10;99.90;;;;;;5992478;24;20537;-87
2021/09/23 03:26:42;;;;;;;23.83;13.73;;;10.20;99.90;;;;;;5992400;24;20024;-86
2021/09/23 03:29:08;;;;;;;19.52;12.13;;;10.10;99.90;;;;;;5992420;24;20016;-85
2021/09/23 03:31:35;;;;;;;19.77;12.40;;;10.10;99.90;;;;;;5993715;24;20035;-87
2021/09/23 03:34:01;;;;;;;20.75;13.63;;;10.00;99.90;;;;;;5996773;24;20008;-87
2021/09/23 03:36:26;;;;;;;23.75;13.35;;;10.00;99.90;;;;;;5997179;24;20337;-87
2021/09/23 03:38:55;;;;;;;23.05;13.88;;;10.00;99.90;;;;;;5997159;24;20012;-87
2021/09/23 03:41:21;;;;;;;21.65;13.88;;;10.00;99.90;;;;;;5996937;24;20008;-87
2021/09/23 03:43:47;;;;;;;21.55;14.07;;;10.10;99.90;;;;;;5996960;24;20021;-87
2021/09/23 03:46:13;;;;;;;22.65;13.10;;;10.10;99.90;;;;;;5996692;24;20016;-87
2021/09/23 03:48:39;;;;;;;20.42;13.27;;;10.10;99.90;;;;;;5996648;24;20538;-88
2021/09/23 03:51:05;;;;;;;19.55;12.18;;;10.10;99.90;;;;;;5996786;24;20008;-87
2021/09/23 03:53:32;;;;;;;19.77;12.18;;;10.00;99.90;;;;;;5997038;24;20012;-87
2021/09/23 03:55:57;;;;;;;24.42;12.98;;;10.00;99.90;;;;;;5996813;24;20035;-87
2021/09/23 03:58:23;;;;;;;20.80;11.20;;;9.90;99.90;;;;;;5997025;24;20012;-87
2021/09/23 04:00:50;;;;;;;23.50;12.98;;;9.80;99.90;;;;;;5996967;24;20008;-87
2021/09/23 04:03:15;;;;;;;19.80;12.68;;;9.70;99.90;;;;;;5996638;24;20083;-87
2021/09/23 04:05:41;;;;;;;22.60;12.35;;;9.80;99.90;;;;;;5997018;24;20004;-88
2021/09/23 04:08:07;;;;;;;18.27;11.48;;;9.80;99.90;;;;;;5996679;24;20095;-86
2021/09/23 04:10:32;;;;;;;20.85;12.40;;;9.80;99.90;;;;;;5996821;24;20012;-87
2021/09/23 04:12:58;;;;;;;18.50;11.45;;;9.80;99.90;;;;;;5996657;24;20012;-87
2021/09/23 04:15:24;;;;;;;19.23;12.32;;;9.80;99.90;;;;;;5994491;24;20015;-87
2021/09/23 04:17:51;;;;;;;20.02;12.50;;;9.80;99.90;;;;;;5996699;24;20008;-88
2021/09/23 04:20:17;;;;;;;20.88;11.68;;;9.80;99.90;;;;;;5996418;24;20008;-87
2021/09/23 04:22:52;;;;;;;22.92;13.30;;;9.80;99.90;;;;;;5997285;24;20012;-88
2021/09/23 04:25:19;;;;;;;19.95;12.60;;;9.90;99.90;;;;;;5998370;24;20015;-86
2021/09/23 04:27:44;;;;;;;21.75;13.02;;;9.80;99.90;;;;;;5996993;24;20024;-87
2021/09/23 04:30:10;;;;;;;20.38;12.93;;;9.80;99.90;;;;;;5995969;24;20047;-88
2021/09/23 04:32:36;;;;;;;19.83;11.73;;;9.90;99.90;;;;;;5996630;24;20019;-87
2021/09/23 04:35:02;;;;;;;19.50;12.18;;;9.70;99.90;;;;;;5996601;24;20016;-88
2021/09/23 04:37:28;;;;;;;21.23;12.10;;;9.70;99.90;;;;;;5995984;24;20008;-88
2021/09/23 04:39:54;;;;;;;19.05;11.15;;;9.80;99.90;;;;;;5991003;24;20012;-88
2021/09/23 04:42:19;;;;;;;18.75;12.30;;;9.80;99.90;;;;;;5996086;24;20012;-88
2021/09/23 04:44:48;;;;;;;20.35;11.55;;;9.70;99.90;;;;;;5995560;24;20031;-87
2021/09/23 04:47:14;;;;;;;18.52;11.55;;;9.80;99.90;;;;;;5996151;24;20020;-88
2021/09/23 04:49:44;;;;;;;19.23;12.15;;;9.60;99.90;;;;;;5996244;24;20012;-88
2021/09/23 04:52:10;;;;;;;17.60;11.20;;;9.80;99.90;;;;;;5996494;24;20004;-87
2021/09/23 04:54:36;;;;;;;18.35;12.10;;;9.70;99.90;;;;;;5996362;24;20517;-87
2021/09/23 04:57:02;;;;;;;21.25;12.30;;;9.70;99.90;;;;;;5995816;24;20016;-87
2021/09/23 04:59:28;;;;;;;19.73;11.65;;;9.60;99.90;;;;;;5996252;24;20008;-86
2021/09/23 05:01:53;;;;;;;19.33;12.30;;;9.60;99.90;;;;;;5995920;24;20016;-86
2021/09/23 05:04:19;;;;;;;22.52;12.15;;;9.60;99.90;;;;;;5996244;24;20035;-87
2021/09/23 05:06:45;;;;;;;18.40;11.95;;;9.70;99.90;;;;;;5995771;23;20019;-87
2021/09/23 05:09:11;;;;;;;19.55;12.00;;;9.70;99.90;;;;;;5996188;24;20012;-87
2021/09/23 05:11:37;;;;;;;18.92;12.02;;;9.70;99.90;;;;;;5995728;24;20012;-86
2021/09/23 05:14:03;;;;;;;18.23;11.10;;;9.70;99.90;;;;;;5996211;24;20012;-87
2021/09/23 05:16:29;;;;;;;18.60;11.65;;;9.80;99.90;;;;;;5996076;24;20004;-86
2021/09/23 05:18:54;;;;;;;20.85;12.60;;;9.80;99.90;;;;;;5996278;24;20009;-87
2021/09/23 05:21:20;;;;;;;21.88;13.35;;;9.80;99.90;;;;;;5996150;24;20016;-85
2021/09/23 05:23:46;;;;;;;23.42;14.00;;;9.80;99.90;;;;;;5996095;24;20037;-87
2021/09/23 05:26:14;;;;;;;20.75;12.82;;;9.90;99.90;;;;;;5995776;24;20020;-89
2021/09/23 05:28:40;;;;;;;22.63;13.73;;;9.90;99.90;;;;;;5996112;24;20285;-88
2021/09/23 05:31:06;;;;;;;21.92;12.95;;;9.90;99.90;;;;;;5995803;24;20008;-89
2021/09/23 05:33:32;;;;;;;23.48;14.60;;;9.90;99.90;;;;;;5995794;24;20015;-89
2021/09/23 05:35:57;;;;;;;23.25;14.38;;;9.90;99.90;;;;;;5995577;24;20009;-90
2021/09/23 05:38:23;;;;;;;26.40;15.60;;;10.10;99.90;;;;;;5995654;24;20033;-90
2021/09/23 05:40:50;;;;;;;23.80;14.27;;;10.00;99.90;;;;;;5995266;24;20038;-89
2021/09/23 05:43:18;;;;;;;23.92;14.10;;;10.00;99.90;;;;;;5995523;24;20057;-90
2021/09/23 05:45:43;;;;;;;28.75;14.05;;;10.10;99.90;;;;;;5994784;24;20028;-92
2021/09/23 05:48:09;;;;;;;19.17;13.27;;;10.10;99.90;;;;;;5994941;24;20495;-90
2021/09/23 05:50:36;;;;;;;22.50;13.48;;;10.10;99.90;;;;;;5994789;24;20032;-91
2021/09/23 05:53:01;;;;;;;19.80;13.43;;;10.20;99.90;;;;;;5995039;24;20047;-90
2021/09/23 05:55:28;;;;;;;20.45;13.85;;;10.30;99.90;;;;;;5995004;24;20012;-90
2021/09/23 05:57:54;;;;;;;21.48;14.50;;;10.30;99.90;;;;;;5994989;24;20094;-90
2021/09/23 06:00:21;;;;;;;21.65;14.55;;;10.40;99.90;;;;;;5994734;24;20460;-90
2021/09/23 06:02:46;;;;;;;22.77;13.13;;;10.50;99.90;;;;;;5995160;24;20024;-89
2021/09/23 06:05:16;;;;;;;19.45;13.40;;;10.50;99.90;;;;;;5994365;24;20018;-89
2021/09/23 06:07:42;;;;;;;25.25;15.27;;;10.60;99.90;;;;;;5994637;24;20079;-90
2021/09/23 06:10:09;;;;;;;23.65;14.18;;;10.60;99.90;;;;;;5993981;24;20065;-90
2021/09/23 06:12:38;;;;;;;;;;;10.60;99.90;;;;;;5995647;24;20015;-89
2021/09/23 06:15:05;;;;;;;22.42;14.27;;;10.60;99.90;;;;;;5995113;24;20355;-89
2021/09/23 06:17:31;;;;;;;19.88;13.63;;;10.70;99.90;;;;;;5994764;24;20012;-89
2021/09/23 06:19:57;;;;;;;24.20;14.88;;;10.70;99.90;;;;;;5994597;24;20008;-89
2021/09/23 06:22:23;;;;;;;21.65;13.15;;;10.80;99.90;;;;;;5994865;24;20008;-90
2021/09/23 06:24:48;;;;;;;19.75;13.13;;;10.90;99.90;;;;;;5994975;24;20326;-89
2021/09/23 06:27:14;;;;;;;21.35;13.13;;;10.90;99.90;;;;;;5994469;24;20023;-90
2021/09/23 06:29:39;;;;;;;20.67;13.85;;;10.90;99.90;;;;;;5995013;24;20033;-91
2021/09/23 06:32:06;;;;;;;20.98;14.55;;;11.00;99.90;;;;;;5994543;24;20017;-90
2021/09/23 06:34:31;;;;;;;22.55;12.60;;;11.10;99.90;;;;;;5994955;24;20008;-91
2021/09/23 06:36:57;;;;;;;22.35;14.02;;;11.20;99.90;;;;;;5994795;24;20522;-90
2021/09/23 06:39:23;;;;;;;20.80;13.05;;;11.30;99.90;;;;;;5995352;24;20015;-90
2021/09/23 06:41:48;;;;;;;27.23;15.65;;;11.40;99.90;;;;;;5996835;24;20019;-91
2021/09/23 06:44:35;;;;;;;23.20;15.45;;;11.50;99.90;;;;;;5996696;24;20012;-90
2021/09/23 06:47:01;;;;;;;23.95;15.88;;;11.60;99.90;;;;;;5944272;24;20020;-91
2021/09/23 06:49:27;;;;;;;25.60;15.13;;;11.70;99.90;;;;;;5944892;24;20021;-91
2021/09/23 06:51:53;;;;;;;28.42;17.27;;;11.80;99.90;;;;;;5967762;24;20064;-90
2021/09/23 06:54:18;;;;;;;26.20;17.95;;;11.90;99.90;;;;;;5944875;24;20020;-90
2021/09/23 06:56:44;;;;;;;26.20;17.63;;;12.10;99.90;;;;;;5944794;24;20043;-89
2021/09/23 06:59:10;;;;;;;24.73;16.55;;;12.20;99.90;;;;;;5945095;24;20037;-89
2021/09/23 07:01:46;;;;;;;24.35;16.48;;;12.40;99.90;;;;;;5944675;24;20005;-89
2021/09/23 07:04:45;;;;;;;25.05;16.42;;;12.50;99.90;;;;;;5945081;24;20028;-89
2021/09/23 07:07:17;;;;;;;25.77;16.48;;;12.70;99.90;;;;;;5944513;24;20017;-90
2021/09/23 07:09:46;;;;;;;24.73;15.95;;;12.80;99.90;;;;;;5945507;24;20061;-90
2021/09/23 07:12:17;;;;;;;34.40;22.02;;;12.90;99.90;;;;;;5944753;24;20013;-90
2021/09/23 07:14:43;;;;;;;34.55;20.92;;;13.00;99.90;;;;;;5944891;24;20084;-92
2021/09/23 07:17:10;;;;;;;30.77;20.60;;;13.10;99.90;;;;;;5944422;24;20040;-93
2021/09/23 07:19:36;;;;;;;31.58;21.15;;;13.10;99.90;;;;;;5944354;24;20016;-92
2021/09/23 07:22:04;;;;;;;38.53;23.17;;;13.30;99.90;;;;;;5944384;24;20050;-90
2021/09/23 07:24:30;;;;;;;33.83;20.63;;;13.20;99.90;;;;;;5964061;24;20008;-91
2021/09/23 07:26:57;;;;;;;37.00;22.80;;;13.30;99.90;;;;;;5996496;24;20051;-90
2021/09/23 07:29:24;;;;;;;49.55;30.13;;;13.40;99.90;;;;;;5996775;24;20446;-90
2021/09/23 07:31:50;;;;;;;44.17;26.83;;;13.50;99.90;;;;;;5996811;24;20015;-91
2021/09/23 07:34:16;;;;;;;47.67;30.95;;;13.60;99.90;;;;;;5996704;24;20043;-90
2021/09/23 07:36:42;;;;;;;47.15;30.95;;;13.80;99.90;;;;;;5996669;24;20016;-89
2021/09/23 07:39:09;;;;;;;51.78;31.48;;;13.90;99.90;;;;;;5973234;24;20012;-90
2021/09/23 07:41:39;;;;;;;45.40;27.92;;;14.00;99.90;;;;;;5996810;24;20008;-90
2021/09/23 07:44:07;;;;;;;38.15;26.15;;;14.10;99.90;;;;;;5996663;24;20067;-90
2021/09/23 07:46:32;;;;;;;53.25;32.28;;;14.20;99.90;;;;;;6096030;23;20018;-88
2021/09/23 07:48:58;;;;;;;50.53;32.13;;;14.30;99.90;;;;;;6140330;23;20049;-90
2021/09/23 07:51:24;;;;;;;45.45;29.58;;;14.40;99.90;;;;;;6139569;23;20438;-88
2021/09/23 07:53:49;;;;;;;50.97;31.50;;;14.50;99.90;;;;;;6140044;23;20017;-89
2021/09/23 07:56:15;;;;;;;36.10;24.17;;;14.60;99.90;;;;;;6140125;23;20012;-90
2021/09/23 07:58:41;;;;;;;41.17;27.60;;;14.80;99.90;;;;;;6139983;23;20006;-89
2021/09/23 08:01:08;;;;;;;41.67;27.17;;;14.90;99.90;;;;;;6140418;23;20055;-89
2021/09/23 08:03:34;;;;;;;33.30;23.20;;;15.10;99.90;;;;;;6115517;23;20100;-88
2021/09/23 08:06:01;;;;;;;33.58;22.75;;;15.30;99.90;;;;;;6140243;23;20010;-89
2021/09/23 08:08:27;;;;;;;32.80;23.00;;;15.40;99.90;;;;;;6139597;23;20069;-89
2021/09/23 08:10:52;;;;;;;32.05;23.17;;;15.40;99.90;;;;;;6140004;23;20025;-89
2021/09/23 08:13:20;;;;;;;39.83;25.92;;;15.60;99.90;;;;;;6139860;23;20069;-89
2021/09/23 08:15:47;;;;;;;30.13;20.88;;;15.50;99.90;;;;;;6139800;23;20037;-88
2021/09/23 08:18:39;;;;;;;31.95;22.05;;;15.70;99.90;;;;;;6138833;23;20014;-88
2021/09/23 08:21:32;;;;;;;31.48;22.38;;;15.80;99.90;;;;;;6128250;23;20010;-90
2021/09/23 08:23:57;;;;;;;32.55;20.63;;;15.90;99.90;;;;;;6139396;23;20021;-89
2021/09/23 08:26:24;;;;;;;30.17;19.85;;;16.00;99.90;;;;;;6139567;23;20014;-90
2021/09/23 08:28:51;;;;;;;37.53;23.70;;;16.20;99.90;;;;;;6114871;23;20017;-90
2021/09/23 08:31:17;;;;;;;32.88;22.35;;;16.10;99.90;;;;;;6115331;23;20428;-90
2021/09/23 08:33:44;;;;;;;29.15;21.05;;;16.10;99.90;;;;;;6139215;23;20033;-89
2021/09/23 08:36:10;;;;;;;32.28;21.38;;;16.30;99.90;;;;;;6139644;23;20014;-89
2021/09/23 08:38:39;;;;;;;30.58;21.98;;;16.40;99.90;;;;;;6114879;23;20045;-91
2021/09/23 08:41:05;;;;;;;31.85;22.35;;;16.30;99.90;;;;;;6139334;23;20068;-86
2021/09/23 08:43:32;;;;;;;43.45;26.83;;;16.40;99.90;;;;;;6139275;23;20175;-89
2021/09/23 08:45:58;;;;;;;34.65;25.60;;;16.30;99.90;;;;;;6101993;23;20043;-89
2021/09/23 08:48:25;;;;;;;37.03;23.15;;;16.20;99.90;;;;;;6085851;23;20431;-87
2021/09/23 08:50:51;;;;;;;34.03;22.05;;;16.30;99.90;;;;;;6109763;23;20029;-88
2021/09/23 08:53:17;;;;;;;35.60;23.65;;;16.50;99.90;;;;;;6086086;23;20029;-89
2021/09/23 08:55:45;;;;;;;35.85;24.15;;;16.50;99.90;;;;;;6109672;23;20030;-91
2021/09/23 08:58:13;;;;;;;41.53;23.80;;;16.30;99.90;;;;;;6109918;23;20013;-89
2021/09/23 09:01:07;;;;;;;25.15;18.25;;;16.40;99.90;;;;;;6109536;23;20006;-89
2021/09/23 09:03:59;;;;;;;30.20;21.13;;;16.60;99.90;;;;;;6085690;23;20007;-88
2021/09/23 09:07:01;;;;;;;27.92;18.58;;;16.60;99.90;;;;;;6108821;23;20010;-92
2021/09/23 09:09:46;;;;;;;25.95;16.58;;;16.80;99.90;;;;;;6109622;23;20011;-91
2021/09/23 09:12:19;;;;;;;20.42;14.68;;;17.00;99.90;;;;;;6109290;23;20074;-92
2021/09/23 09:14:56;;;;;;;21.80;15.45;;;17.20;99.90;;;;;;6109545;23;20442;-91
2021/09/23 09:17:42;;;;;;;18.80;12.73;;;17.10;99.90;;;;;;6110259;23;20097;-90
2021/09/23 09:20:09;;;;;;;21.63;13.02;;;17.10;99.90;;;;;;6099631;23;20026;-90
2021/09/23 09:22:36;;;;;;;18.08;12.18;;;17.00;99.90;;;;;;6085678;23;20019;-90
2021/09/23 09:25:08;;;;;;;23.67;13.80;;;17.00;99.90;;;;;;6086189;23;20014;-91
2021/09/23 09:27:42;;;;;;;21.85;14.40;;;17.10;99.90;;;;;;6085538;23;20018;-88
2021/09/23 09:30:19;;;;;;;18.60;12.77;;;17.00;99.90;;;;;;6085251;23;20010;-89
2021/09/23 09:33:07;;;;;;;22.92;13.18;;;17.00;99.90;;;;;;6109827;23;20155;-91
2021/09/23 09:35:35;;;;;;;23.50;15.07;;;16.90;99.90;;;;;;6109301;23;20006;-91
2021/09/23 09:38:03;;;;;;;21.00;14.90;;;16.70;99.90;;;;;;6109574;23;20033;-91
2021/09/23 09:40:34;;;;;;;27.42;16.02;;;16.70;99.90;;;;;;6109292;23;20066;-91
2021/09/23 09:43:06;;;;;;;24.38;15.07;;;16.70;99.90;;;;;;6109548;23;20021;-92
2021/09/23 09:45:34;;;;;;;21.90;15.93;;;16.90;99.90;;;;;;6092424;23;20024;-92
2021/09/23 09:48:01;;;;;;;24.10;15.70;;;17.00;99.90;;;;;;6114310;23;20047;-92
2021/09/23 09:50:36;;;;;;;24.55;16.23;;;17.00;99.90;;;;;;6138811;23;20006;-93
2021/09/23 09:53:10;;;;;;;28.90;16.23;;;16.80;99.90;;;;;;6138673;23;20006;-93
2021/09/23 09:55:46;;;;;;;24.42;15.30;;;16.90;99.90;;;;;;6138276;23;20006;-92
2021/09/23 09:58:24;;;;;;;21.00;14.63;;;16.90;99.90;;;;;;6138679;23;20010;-93
2021/09/23 10:01:13;;;;;;;23.15;15.10;;;16.90;99.90;;;;;;6138835;23;20017;-94
2021/09/23 10:03:45;;;;;;;26.00;16.30;;;17.00;99.90;;;;;;6113806;23;20014;-91
2021/09/23 10:06:11;;;;;;;21.45;13.98;;;17.30;99.90;;;;;;6138769;23;20013;-92
2021/09/23 10:08:37;;;;;;;26.23;14.77;;;17.50;99.90;;;;;;6138499;23;20021;-93
2021/09/23 10:11:04;;;;;;;19.02;13.85;;;17.70;99.90;;;;;;6138496;23;20006;-92
2021/09/23 10:13:36;;;;;;;19.90;13.07;;;17.60;99.90;;;;;;6138417;23;20032;-93
2021/09/23 10:16:25;;;;;;;19.50;12.93;;;17.90;99.90;;;;;;6138589;23;20006;-92
2021/09/23 10:18:58;;;;;;;18.60;12.07;;;18.00;99.90;;;;;;6138306;23;20026;-92
2021/09/23 10:21:25;;;;;;;17.75;11.73;;;18.10;99.90;;;;;;6138703;23;20010;-90
2021/09/23 10:23:55;;;;;;;17.67;11.95;;;18.20;99.90;;;;;;6138393;23;20386;-93
2021/09/23 10:26:30;;;;;;;17.92;12.63;;;18.20;99.90;;;;;;6138255;23;20002;-93
2021/09/23 10:29:08;;;;;;;20.70;11.82;;;18.20;99.90;;;;;;6138272;23;20014;-92
2021/09/23 10:31:38;;;;;;;16.73;11.98;;;18.30;99.90;;;;;;6138413;23;20115;-91
2021/09/23 10:34:05;;;;;;;20.27;12.73;;;18.10;99.90;;;;;;6138725;23;20020;-89
2021/09/23 10:36:34;;;;;;;17.10;11.85;;;17.70;99.90;;;;;;6138457;23;20002;-92
2021/09/23 10:39:07;;;;;;;18.25;12.40;;;17.70;99.90;;;;;;6138427;23;20159;-92
2021/09/23 10:41:37;;;;;;;14.85;12.85;;;18.00;99.90;;;;;;6137847;23;20066;-89
2021/09/23 10:44:05;;;;;;;20.42;11.75;;;18.30;99.90;;;;;;6138122;23;20074;-88
2021/09/23 10:47:01;;;;;;;16.48;12.05;;;18.30;99.90;;;;;;6137439;23;20033;-90
2021/09/23 10:49:29;;;;;;;18.73;12.40;;;18.20;99.90;;;;;;6138059;23;20013;-92
2021/09/23 10:52:01;;;;;;;13.05;11.05;;;18.10;99.90;;;;;;6137892;23;20021;-91
2021/09/23 10:58:57;;;;;;;19.30;11.57;;;17.80;99.90;;;;;;6087190;23;20463;-92
2021/09/23 11:01:59;;;;;;;15.02;10.52;;;17.70;99.90;;;;;;6087992;23;20022;-91
2021/09/23 11:08:50;;;;;;;12.50;9.48;;;17.70;99.90;;;;;;5992891;24;20039;-93
2021/09/23 11:12:08;;;;;;;12.57;8.98;;;17.60;99.90;;;;;;5993677;24;20228;-91
2021/09/23 11:15:43;;;;;;;;;;;;;;;;;;;;;
2021/09/23 11:18:32;;;;;;;15.18;9.38;;;17.80;99.90;;;;;;5993483;24;20110;-93
2021/09/23 11:21:10;;;;;;;13.05;8.40;;;17.80;99.90;;;;;;5947660;24;20020;-92
2021/09/23 11:24:14;;;;;;;10.98;7.72;;;17.80;99.90;;;;;;5970678;24;20008;-91
2021/09/23 11:26:44;;;;;;;13.73;8.00;;;17.80;99.90;;;;;;5933550;24;20020;-92
2021/09/23 11:29:11;;;;;;;;;;;17.60;99.90;;;;;;5948412;24;20024;-90
2021/09/23 11:31:52;;;;;;;12.98;6.88;;;17.50;99.90;;;;;;5971542;24;19906;-91
2021/09/23 11:34:29;;;;;;;12.70;6.90;;;17.50;99.90;;;;;;5949052;24;20012;-90
2021/09/23 11:36:55;;;;;;;12.73;7.60;;;17.50;99.90;;;;;;5948736;24;20213;-92
2021/09/23 11:39:21;;;;;;;10.52;6.78;;;17.50;99.90;;;;;;5972332;23;20004;-91
2021/09/23 11:42:11;;;;;;;14.75;6.78;;;17.60;99.90;;;;;;5976724;23;20011;-92
2021/09/23 11:44:37;;;;;;;12.10;5.22;;;17.60;99.90;;;;;;6028197;23;20097;-89
2021/09/23 11:47:03;;;;;;;11.20;5.03;;;17.70;99.90;;;;;;6086450;23;20091;-90
2021/09/23 11:49:32;;;;;;;8.40;4.63;;;17.80;99.90;;;;;;6087331;23;20018;-94
2021/09/23 11:52:00;;;;;;;9.55;4.35;;;17.80;99.90;;;;;;6086350;23;20006;-90
2021/09/23 11:54:29;;;;;;;7.55;3.42;;;17.70;99.90;;;;;;6086537;23;20010;-90
2021/09/23 11:56:55;;;;;;;9.63;3.17;;;17.80;99.90;;;;;;6110135;23;20030;-89
2021/09/23 11:59:27;;;;;;;5.97;3.28;;;17.80;99.90;;;;;;6085844;23;20022;-90
2021/09/23 12:02:04;;;;;;;7.70;3.28;;;17.90;99.90;;;;;;6062408;23;20401;-90
2021/09/23 12:04:32;;;;;;;6.72;3.15;;;18.00;99.90;;;;;;6086410;23;20021;-90
2021/09/23 12:07:06;;;;;;;9.07;3.42;;;18.00;99.90;;;;;;6085944;23;20030;-89
2021/09/23 12:09:33;;;;;;;7.10;3.15;;;18.60;99.90;;;;;;6086243;23;20021;-90
2021/09/23 12:12:02;;;;;;;11.90;3.20;;;18.90;99.90;;;;;;6086171;23;20014;-90
2021/09/23 12:14:28;;;;;;;9.52;3.00;;;18.70;99.90;;;;;;6085986;23;20017;-89
2021/09/23 12:17:07;;;;;;;7.28;3.20;;;19.20;99.90;;;;;;6085821;23;20018;-90
2021/09/23 12:19:51;;;;;;;7.05;2.88;;;19.20;99.90;;;;;;6086147;23;20018;-90
2021/09/23 12:22:28;;;;;;;7.00;3.50;;;19.10;99.90;;;;;;6085964;23;20101;-91
2021/09/23 12:24:54;;;;;;;9.57;3.08;;;19.10;99.90;;;;;;6086153;23;20083;-87
2021/09/23 12:27:23;;;;;;;9.13;3.05;;;19.10;99.90;;;;;;6085128;23;20082;-88
2021/09/23 12:29:52;;;;;;;8.43;2.85;;;18.60;99.90;;;;;;6085161;23;20013;-89
2021/09/23 12:32:18;;;;;;;6.13;2.63;;;18.80;99.90;;;;;;6086332;23;20011;-88
2021/09/23 12:34:50;;;;;;;5.70;2.30;;;18.90;99.90;;;;;;6086128;23;20007;-89
2021/09/23 12:37:22;;;;;;;5.82;1.95;;;19.00;99.90;;;;;;6085818;23;20495;-88
2021/09/23 12:40:04;;;;;;;6.70;1.55;;;19.40;99.90;;;;;;6086085;23;20010;-90
2021/09/23 12:42:34;;;;;;;3.80;1.30;;;19.20;99.90;;;;;;6085454;23;20011;-90
2021/09/23 12:45:05;;;;;;;6.45;1.77;;;18.90;99.90;;;;;;6086073;23;20014;-90
2021/09/23 12:47:44;;;;;;;6.15;1.75;;;18.70;99.90;;;;;;6086088;23;20026;-90
2021/09/23 12:50:11;;;;;;;9.27;1.88;;;18.50;99.90;;;;;;6086178;23;20006;-89
2021/09/23 12:52:39;;;;;;;4.75;1.40;;;18.50;99.90;;;;;;6085990;23;20012;-88
2021/09/23 12:55:16;;;;;;;8.60;2.20;;;18.80;99.90;;;;;;6086475;23;20007;-90
2021/09/23 12:57:55;;;;;;;7.75;1.20;;;18.70;99.90;;;;;;6086415;23;20038;-90